Time;durP1;ratioP1;P1;durP2;ratioP2;P2;SDS_P1;SDS_P2;PMS_P1;PMS_P2;Temp;Humidity;BMP_temperature;BMP_pressure;BME280_temperature;BME280_humidity;BME280_pressure;Samples;Min_cycle;Max_cycle;Signal;HPM_P1;HPM_P2
2022/11/30 00:00:20;;;;;;;124.97;25.77;;;;;;;;;;5067649;28;20027;-58
2022/11/30 00:02:48;;;;;;;103.45;26.15;;;;;;;;;;5069203;28;20032;-56
2022/11/30 00:05:14;;;;;;;104.35;25.02;;;;;;;;;;5067865;28;20205;-57
2022/11/30 00:07:39;;;;;;;110.85;24.58;;;;;;;;;;5052672;28;20131;-58
2022/11/30 00:10:06;;;;;;;101.55;25.23;;;;;;;;;;5068703;28;20370;-57
2022/11/30 00:12:32;;;;;;;96.93;24.52;;;;;;;;;;5070623;28;20039;-55
2022/11/30 00:14:57;;;;;;;93.47;23.30;;;;;;;;;;5069808;28;20032;-59
2022/11/30 00:17:23;;;;;;;94.68;23.00;;;;;;;;;;5050806;28;20396;-57
2022/11/30 00:19:48;;;;;;;89.90;23.38;;;;;;;;;;5069094;28;20039;-61
2022/11/30 00:22:14;;;;;;;82.35;21.77;;;;;;;;;;5070414;28;20512;-55
2022/11/30 00:24:39;;;;;;;75.43;21.55;;;;;;;;;;5040904;28;20046;-56
2022/11/30 00:27:05;;;;;;;70.22;20.67;;;;;;;;;;5049059;28;20025;-58
2022/11/30 00:29:30;;;;;;;74.68;21.27;;;;;;;;;;5070919;28;20425;-56
2022/11/30 00:31:56;;;;;;;81.80;21.15;;;;;;;;;;5055323;28;20117;-60
2022/11/30 00:34:22;;;;;;;75.38;21.13;;;;;;;;;;5057033;28;20033;-57
2022/11/30 00:36:47;;;;;;;78.55;21.02;;;;;;;;;;5070734;28;20035;-58
2022/11/30 00:39:12;;;;;;;67.32;20.27;;;;;;;;;;5071431;28;20480;-57
2022/11/30 00:41:38;;;;;;;85.70;21.65;;;;;;;;;;5059536;28;20029;-59
2022/11/30 00:44:03;;;;;;;73.68;20.73;;;;;;;;;;5069840;28;20028;-59
2022/11/30 00:46:29;;;;;;;74.95;20.58;;;;;;;;;;5071894;28;20044;-57
2022/11/30 00:48:54;;;;;;;76.85;20.95;;;;;;;;;;5073819;28;20081;-58
2022/11/30 00:51:20;;;;;;;66.90;19.38;;;;;;;;;;5055909;28;20036;-56
2022/11/30 00:53:48;;;;;;;75.10;19.67;;;;;;;;;;5059710;28;20042;-59
2022/11/30 00:56:14;;;;;;;73.90;19.40;;;;;;;;;;5068544;28;20048;-61
2022/11/30 00:58:40;;;;;;;62.45;19.05;;;;;;;;;;5055149;28;20048;-61
2022/11/30 01:01:06;;;;;;;61.53;19.88;;;;;;;;;;5069464;28;20483;-59
2022/11/30 01:03:32;;;;;;;60.97;19.70;;;;;;;;;;5073576;28;20109;-60
2022/11/30 01:06:06;;;;;;;61.05;18.90;;;;;;;;;;5054048;28;20127;-63
2022/11/30 01:08:32;;;;;;;54.17;17.50;;;;;;;;;;5071641;28;20043;-61
2022/11/30 01:11:04;;;;;;;51.22;17.55;;;;;;;;;;5073405;28;20024;-63
2022/11/30 01:13:30;;;;;;;55.20;18.08;;;;;;;;;;5070906;28;20028;-60
2022/11/30 01:15:55;;;;;;;55.10;18.13;;;;;;;;;;5072058;28;20112;-61
2022/11/30 01:18:21;;;;;;;67.45;19.27;;;;;;;;;;5053948;28;20112;-62
2022/11/30 01:20:46;;;;;;;60.28;19.08;;;;;;;;;;5057895;28;20037;-62
2022/11/30 01:23:12;;;;;;;62.50;18.67;;;;;;;;;;5035515;28;20075;-63
2022/11/30 01:25:38;;;;;;;62.00;18.08;;;;;;;;;;5070547;28;21253;-62
2022/11/30 01:28:03;;;;;;;69.18;19.63;;;;;;;;;;5053128;28;20037;-62
2022/11/30 01:30:29;;;;;;;67.38;18.67;;;;;;;;;;5048575;28;20075;-61
2022/11/30 01:32:54;;;;;;;65.20;19.85;;;;;;;;;;5073375;28;20427;-62
2022/11/30 01:35:20;;;;;;;70.03;19.73;;;;;;;;;;5068035;28;20032;-62
2022/11/30 01:37:45;;;;;;;87.10;21.70;;;;;;;;;;5073223;28;20029;-62
2022/11/30 01:40:11;;;;;;;81.05;21.90;;;;;;;;;;5052328;28;20037;-61
2022/11/30 01:42:37;;;;;;;84.25;22.58;;;;;;;;;;5056704;28;20040;-62
2022/11/30 01:45:04;;;;;;;77.47;20.48;;;;;;;;;;5053434;28;20020;-62
2022/11/30 01:47:38;;;;;;;70.85;19.83;;;;;;;;;;5068416;28;20059;-62
2022/11/30 01:50:20;;;;;;;83.32;21.98;;;;;;;;;;5067501;28;20063;-64
2022/11/30 01:52:52;;;;;;;84.38;20.83;;;;;;;;;;5054174;28;20032;-62
2022/11/30 01:55:26;;;;;;;87.28;21.60;;;;;;;;;;5070995;28;20512;-62
2022/11/30 01:58:02;;;;;;;83.35;22.35;;;;;;;;;;5072741;28;20094;-62
2022/11/30 02:00:28;;;;;;;82.90;21.10;;;;;;;;;;5071209;28;20032;-61
2022/11/30 02:02:59;;;;;;;84.88;21.92;;;;;;;;;;5070578;28;20385;-61
2022/11/30 02:05:26;;;;;;;89.90;22.60;;;;;;;;;;5070395;28;20029;-62
2022/11/30 02:07:52;;;;;;;89.63;22.98;;;;;;;;;;5058340;28;20036;-62
2022/11/30 02:10:23;;;;;;;93.35;23.52;;;;;;;;;;5069218;28;20036;-62
2022/11/30 02:13:07;;;;;;;83.65;23.25;;;;;;;;;;5052954;28;20112;-62
2022/11/30 02:15:59;;;;;;;82.00;23.08;;;;;;;;;;5071521;28;20056;-62
2022/11/30 02:18:47;;;;;;;90.30;23.20;;;;;;;;;;5029356;28;20086;-62
2022/11/30 02:21:22;;;;;;;89.55;23.58;;;;;;;;;;5070902;28;20024;-61
2022/11/30 02:24:19;;;;;;;81.97;22.38;;;;;;;;;;5053276;28;20032;-61
2022/11/30 02:26:57;;;;;;;84.45;22.45;;;;;;;;;;5072132;28;20119;-61
2022/11/30 02:30:02;;;;;;;77.50;21.58;;;;;;;;;;5068566;28;20306;-62
2022/11/30 02:32:32;;;;;;;85.38;22.30;;;;;;;;;;4969975;28;20510;-62
2022/11/30 02:35:01;;;;;;;80.32;22.25;;;;;;;;;;5050697;28;20044;-61
2022/11/30 02:37:28;;;;;;;74.38;21.33;;;;;;;;;;5070360;28;20036;-62
2022/11/30 02:39:54;;;;;;;73.93;21.65;;;;;;;;;;5054453;28;20380;-61
2022/11/30 02:42:20;;;;;;;78.82;21.55;;;;;;;;;;5053524;28;20040;-63
2022/11/30 02:44:48;;;;;;;80.80;21.30;;;;;;;;;;5061586;28;20119;-61
2022/11/30 02:47:23;;;;;;;74.60;23.25;;;;;;;;;;5071673;28;20025;-62
2022/11/30 02:50:00;;;;;;;71.00;20.98;;;;;;;;;;5039580;28;20110;-61
2022/11/30 02:52:28;;;;;;;74.28;22.35;;;;;;;;;;5068608;28;20056;-62
2022/11/30 02:55:19;;;;;;;69.07;21.85;;;;;;;;;;5072505;28;20040;-61
2022/11/30 02:57:45;;;;;;;69.65;21.85;;;;;;;;;;5082882;28;20123;-61
2022/11/30 03:00:13;;;;;;;68.97;21.92;;;;;;;;;;5070802;28;20103;-61
2022/11/30 03:02:39;;;;;;;64.28;21.70;;;;;;;;;;5070033;28;20042;-61
2022/11/30 03:05:06;;;;;;;70.05;21.70;;;;;;;;;;5065294;28;20021;-63
2022/11/30 03:07:31;;;;;;;68.07;20.50;;;;;;;;;;5070068;28;20033;-62
2022/11/30 03:09:57;;;;;;;65.65;20.45;;;;;;;;;;5070852;28;20048;-61
2022/11/30 03:12:22;;;;;;;60.83;20.98;;;;;;;;;;5057440;28;20029;-61
2022/11/30 03:14:48;;;;;;;72.47;21.90;;;;;;;;;;5071377;28;20028;-61
2022/11/30 03:17:13;;;;;;;70.30;21.40;;;;;;;;;;5067639;28;20123;-61
2022/11/30 03:19:39;;;;;;;67.25;21.30;;;;;;;;;;5072053;28;20033;-62
2022/11/30 03:22:04;;;;;;;69.97;21.85;;;;;;;;;;5070023;28;20116;-62
2022/11/30 03:24:30;;;;;;;61.47;21.30;;;;;;;;;;5071169;28;20488;-61
2022/11/30 03:26:55;;;;;;;66.18;21.85;;;;;;;;;;5068125;28;20391;-61
2022/11/30 03:29:20;;;;;;;70.88;21.48;;;;;;;;;;5069890;28;20028;-62
2022/11/30 03:31:46;;;;;;;60.13;19.55;;;;;;;;;;5069344;28;20032;-61
2022/11/30 03:34:11;;;;;;;59.10;20.40;;;;;;;;;;5069384;28;20029;-61
2022/11/30 03:36:36;;;;;;;69.68;21.85;;;;;;;;;;5068909;28;20032;-63
2022/11/30 03:39:03;;;;;;;56.42;20.52;;;;;;;;;;5071091;28;20025;-61
2022/11/30 03:41:28;;;;;;;55.15;20.45;;;;;;;;;;5067328;28;20028;-61
2022/11/30 03:43:54;;;;;;;57.45;21.05;;;;;;;;;;5071258;28;20028;-61
2022/11/30 03:46:19;;;;;;;54.42;20.08;;;;;;;;;;5068401;28;20047;-61
2022/11/30 03:48:45;;;;;;;54.38;20.42;;;;;;;;;;5070932;28;20040;-62
2022/11/30 03:51:11;;;;;;;52.90;19.45;;;;;;;;;;5068570;28;20037;-63
2022/11/30 03:53:37;;;;;;;54.55;20.02;;;;;;;;;;5068981;28;20032;-61
2022/11/30 03:56:06;;;;;;;54.10;19.75;;;;;;;;;;5069381;28;20523;-61
2022/11/30 03:58:32;;;;;;;62.80;21.23;;;;;;;;;;5070069;28;20166;-61
2022/11/30 04:01:01;;;;;;;59.95;20.00;;;;;;;;;;5070048;28;20033;-60
2022/11/30 04:03:28;;;;;;;54.25;20.08;;;;;;;;;;5066533;28;20119;-61
2022/11/30 04:05:53;;;;;;;52.03;20.17;;;;;;;;;;5069557;28;20048;-61
2022/11/30 04:08:19;;;;;;;57.97;21.25;;;;;;;;;;5068887;28;20032;-61
2022/11/30 04:10:50;;;;;;;53.33;19.60;;;;;;;;;;5068640;28;20032;-61
2022/11/30 04:13:16;;;;;;;55.13;20.33;;;;;;;;;;5063683;28;20024;-61
2022/11/30 04:15:41;;;;;;;51.85;19.25;;;;;;;;;;5070096;28;20082;-61
2022/11/30 04:18:07;;;;;;;50.17;19.92;;;;;;;;;;5070336;28;20034;-61
2022/11/30 04:20:32;;;;;;;50.83;19.35;;;;;;;;;;5069205;28;20366;-61
2022/11/30 04:22:57;;;;;;;46.63;18.92;;;;;;;;;;5070673;28;20120;-61
2022/11/30 04:25:23;;;;;;;44.28;19.15;;;;;;;;;;5069600;28;20033;-61
2022/11/30 04:27:48;;;;;;;45.85;18.48;;;;;;;;;;5068974;28;20056;-60
2022/11/30 04:30:14;;;;;;;44.65;18.90;;;;;;;;;;5051748;28;20040;-61
2022/11/30 04:32:40;;;;;;;41.08;18.65;;;;;;;;;;5069636;28;20037;-61
2022/11/30 04:35:06;;;;;;;49.17;18.35;;;;;;;;;;5058442;28;20037;-61
2022/11/30 04:37:31;;;;;;;43.28;18.35;;;;;;;;;;5066361;28;20087;-60
2022/11/30 04:39:57;;;;;;;40.42;17.13;;;;;;;;;;5068224;28;20032;-61
2022/11/30 04:42:22;;;;;;;44.10;18.55;;;;;;;;;;5068519;28;20044;-61
2022/11/30 04:44:48;;;;;;;45.58;18.83;;;;;;;;;;5069410;28;20024;-61
2022/11/30 04:47:13;;;;;;;45.85;18.20;;;;;;;;;;5070980;28;20035;-62
2022/11/30 04:49:38;;;;;;;40.08;17.73;;;;;;;;;;5068859;28;20060;-62
2022/11/30 04:52:04;;;;;;;42.50;17.50;;;;;;;;;;5070012;28;20051;-61
2022/11/30 04:54:29;;;;;;;43.55;17.48;;;;;;;;;;5050600;28;20175;-61
2022/11/30 04:56:54;;;;;;;39.97;16.98;;;;;;;;;;5068105;28;20035;-62
2022/11/30 04:59:20;;;;;;;44.15;17.38;;;;;;;;;;5067975;28;20043;-61
2022/11/30 05:01:45;;;;;;;43.35;18.02;;;;;;;;;;5055476;28;20036;-61
2022/11/30 05:04:11;;;;;;;41.30;18.20;;;;;;;;;;5063927;28;20028;-62
2022/11/30 05:06:36;;;;;;;44.70;18.38;;;;;;;;;;5067422;28;20393;-60
2022/11/30 05:09:02;;;;;;;44.22;17.95;;;;;;;;;;5070857;28;20124;-61
2022/11/30 05:11:27;;;;;;;42.75;17.98;;;;;;;;;;5056028;28;20056;-61
2022/11/30 05:13:52;;;;;;;39.60;17.67;;;;;;;;;;5073594;28;20115;-60
2022/11/30 05:16:18;;;;;;;39.28;17.38;;;;;;;;;;5056015;28;20034;-60
2022/11/30 05:18:43;;;;;;;38.40;17.10;;;;;;;;;;5072822;28;20119;-60
2022/11/30 05:21:08;;;;;;;40.20;17.70;;;;;;;;;;5074755;28;20078;-61
2022/11/30 05:23:34;;;;;;;40.53;18.27;;;;;;;;;;5073634;28;20646;-60
2022/11/30 05:26:02;;;;;;;38.13;17.42;;;;;;;;;;5074310;28;20102;-60
2022/11/30 05:28:28;;;;;;;40.60;18.00;;;;;;;;;;5073386;28;20062;-60
2022/11/30 05:30:53;;;;;;;39.75;18.45;;;;;;;;;;5073559;28;20033;-60
2022/11/30 05:33:18;;;;;;;40.35;16.98;;;;;;;;;;5073989;28;20086;-61
2022/11/30 05:35:44;;;;;;;39.67;16.75;;;;;;;;;;5072354;28;20039;-61
2022/11/30 05:38:09;;;;;;;37.20;17.35;;;;;;;;;;5073961;28;20044;-60
2022/11/30 05:40:35;;;;;;;40.15;17.85;;;;;;;;;;5055030;28;20033;-61
2022/11/30 05:43:01;;;;;;;37.08;17.38;;;;;;;;;;5074651;28;20361;-60
2022/11/30 05:45:27;;;;;;;38.70;17.60;;;;;;;;;;5072297;28;20033;-60
2022/11/30 05:47:52;;;;;;;38.55;17.38;;;;;;;;;;5073922;28;20549;-60
2022/11/30 05:50:18;;;;;;;39.05;18.00;;;;;;;;;;5072638;28;20385;-62
2022/11/30 05:52:43;;;;;;;40.03;17.90;;;;;;;;;;5056557;28;20063;-60
2022/11/30 05:55:09;;;;;;;38.03;17.27;;;;;;;;;;5073974;28;20057;-59
2022/11/30 05:57:36;;;;;;;40.83;18.27;;;;;;;;;;5093397;28;20024;-59
2022/11/30 06:00:03;;;;;;;40.05;17.92;;;;;;;;;;5080771;28;20040;-60
2022/11/30 06:02:29;;;;;;;38.70;18.38;;;;;;;;;;5057821;28;20025;-59
2022/11/30 06:04:57;;;;;;;37.67;18.02;;;;;;;;;;5082025;28;20453;-60
2022/11/30 06:07:23;;;;;;;39.67;18.80;;;;;;;;;;5076381;28;20036;-60
2022/11/30 06:09:48;;;;;;;41.47;18.75;;;;;;;;;;5067160;28;20061;-61
2022/11/30 06:12:14;;;;;;;37.63;17.90;;;;;;;;;;5076445;28;20056;-61
2022/11/30 06:14:39;;;;;;;41.88;18.45;;;;;;;;;;5073369;28;20055;-58
2022/11/30 06:17:05;;;;;;;39.75;18.60;;;;;;;;;;5058657;28;20032;-61
2022/11/30 06:19:31;;;;;;;41.10;19.23;;;;;;;;;;5072711;28;20055;-60
2022/11/30 06:21:57;;;;;;;45.75;19.42;;;;;;;;;;5071464;28;20039;-61
2022/11/30 06:24:23;;;;;;;45.35;19.33;;;;;;;;;;5035295;28;20115;-61
2022/11/30 06:26:48;;;;;;;46.33;19.88;;;;;;;;;;5070682;28;20584;-62
2022/11/30 06:29:14;;;;;;;46.53;20.08;;;;;;;;;;5072062;28;20029;-61
2022/11/30 06:31:39;;;;;;;46.47;19.98;;;;;;;;;;5072671;28;20040;-62
2022/11/30 06:34:05;;;;;;;41.83;18.98;;;;;;;;;;5067682;28;20028;-61
2022/11/30 06:36:31;;;;;;;42.03;19.15;;;;;;;;;;5071988;28;20024;-61
2022/11/30 06:38:56;;;;;;;49.55;20.77;;;;;;;;;;5072871;28;20051;-62
2022/11/30 06:41:22;;;;;;;45.30;19.42;;;;;;;;;;5071696;28;20028;-63
2022/11/30 06:43:48;;;;;;;46.63;20.52;;;;;;;;;;5072115;28;20051;-63
2022/11/30 06:46:13;;;;;;;44.30;20.08;;;;;;;;;;5072892;28;20021;-61
2022/11/30 06:48:39;;;;;;;46.40;20.10;;;;;;;;;;5070965;28;20450;-61
2022/11/30 06:51:08;;;;;;;46.17;20.20;;;;;;;;;;5072019;28;20151;-62
2022/11/30 06:53:35;;;;;;;46.35;20.20;;;;;;;;;;5053427;28;20028;-61
2022/11/30 06:56:05;;;;;;;52.35;20.58;;;;;;;;;;5051576;28;20049;-62
2022/11/30 06:58:30;;;;;;;48.27;20.80;;;;;;;;;;5071808;28;20020;-61
2022/11/30 07:00:56;;;;;;;46.33;21.33;;;;;;;;;;5052884;28;20110;-61
2022/11/30 07:03:21;;;;;;;44.05;19.92;;;;;;;;;;5066444;28;20028;-61
2022/11/30 07:05:47;;;;;;;46.92;20.67;;;;;;;;;;5070676;28;20043;-61
2022/11/30 07:08:14;;;;;;;49.53;21.05;;;;;;;;;;5052691;28;20349;-61
2022/11/30 07:10:44;;;;;;;50.30;20.08;;;;;;;;;;5070616;28;20489;-61
2022/11/30 07:13:11;;;;;;;48.08;21.27;;;;;;;;;;5053849;28;20078;-60
2022/11/30 07:15:38;;;;;;;49.75;21.08;;;;;;;;;;5067344;28;20036;-59
2022/11/30 07:18:04;;;;;;;48.53;21.25;;;;;;;;;;5070462;28;20028;-62
2022/11/30 07:20:29;;;;;;;46.28;20.33;;;;;;;;;;5071416;28;20077;-62
2022/11/30 07:22:55;;;;;;;46.13;20.02;;;;;;;;;;5070913;28;20040;-61
2022/11/30 07:28:07;;;;;;;43.38;20.17;;;;;;;;;;5069864;28;20145;-61
2022/11/30 07:30:33;;;;;;;46.47;20.20;;;;;;;;;;5053100;28;20029;-61
2022/11/30 07:32:58;;;;;;;48.30;21.00;;;;;;;;;;5066806;28;20091;-60
2022/11/30 07:35:24;;;;;;;49.50;21.13;;;;;;;;;;5070898;28;20037;-62
2022/11/30 07:37:49;;;;;;;46.63;19.73;;;;;;;;;;5052700;28;20082;-60
2022/11/30 07:40:15;;;;;;;46.95;20.63;;;;;;;;;;5053278;28;20027;-61
2022/11/30 07:42:40;;;;;;;46.72;19.52;;;;;;;;;;5069013;28;20122;-60
2022/11/30 07:45:06;;;;;;;45.65;20.42;;;;;;;;;;5052863;28;20125;-62
2022/11/30 07:47:32;;;;;;;45.53;19.45;;;;;;;;;;5069376;28;20032;-60
2022/11/30 07:49:57;;;;;;;44.67;19.60;;;;;;;;;;5071303;28;20105;-62
2022/11/30 07:52:23;;;;;;;43.30;19.58;;;;;;;;;;5051306;28;20044;-60
2022/11/30 07:54:49;;;;;;;47.65;20.27;;;;;;;;;;5049606;28;20091;-58
2022/11/30 07:57:15;;;;;;;46.75;20.63;;;;;;;;;;5068481;28;20036;-61
2022/11/30 07:59:40;;;;;;;44.63;19.42;;;;;;;;;;5052549;28;20487;-61
2022/11/30 08:02:06;;;;;;;48.53;20.50;;;;;;;;;;5069050;28;20029;-59
2022/11/30 08:04:31;;;;;;;47.65;20.30;;;;;;;;;;5068183;28;20059;-61
2022/11/30 08:06:57;;;;;;;47.13;20.25;;;;;;;;;;5071144;28;20382;-61
2022/11/30 08:09:23;;;;;;;43.13;20.17;;;;;;;;;;5069318;28;20318;-60
2022/11/30 08:11:49;;;;;;;44.05;19.98;;;;;;;;;;5070382;28;20044;-61
2022/11/30 08:14:14;;;;;;;51.58;20.45;;;;;;;;;;5067828;28;20032;-61
2022/11/30 08:16:42;;;;;;;44.95;19.95;;;;;;;;;;5069724;28;20693;-58
2022/11/30 08:19:07;;;;;;;41.72;19.65;;;;;;;;;;5069718;28;20071;-62
2022/11/30 08:21:33;;;;;;;45.10;19.70;;;;;;;;;;5070510;28;20064;-59
2022/11/30 08:23:58;;;;;;;42.88;19.55;;;;;;;;;;5069006;28;20101;-61
2022/11/30 08:26:29;;;;;;;47.08;19.55;;;;;;;;;;5070096;28;20082;-59
2022/11/30 08:28:55;;;;;;;39.30;19.55;;;;;;;;;;5069907;28;20028;-60
2022/11/30 08:31:32;;;;;;;47.95;19.83;;;;;;;;;;5067473;28;20064;-61
2022/11/30 08:34:00;;;;;;;40.17;18.65;;;;;;;;;;5070791;28;20028;-60
2022/11/30 08:36:27;;;;;;;39.63;18.83;;;;;;;;;;5070453;28;20033;-61
2022/11/30 08:38:52;;;;;;;42.42;18.73;;;;;;;;;;5069273;28;20063;-60
2022/11/30 08:41:20;;;;;;;43.63;19.38;;;;;;;;;;5047509;28;20056;-59
2022/11/30 08:43:46;;;;;;;42.65;19.13;;;;;;;;;;5068761;28;20036;-59
2022/11/30 08:46:14;;;;;;;45.78;19.52;;;;;;;;;;5072982;28;20218;-59
2022/11/30 08:48:39;;;;;;;46.60;19.02;;;;;;;;;;5073279;28;20111;-60
2022/11/30 08:51:08;;;;;;;43.67;19.42;;;;;;;;;;5074257;28;20421;-63
2022/11/30 08:53:34;;;;;;;38.55;17.80;;;;;;;;;;5065723;28;20045;-61
2022/11/30 08:56:03;;;;;;;42.92;18.92;;;;;;;;;;5072189;28;20275;-57
2022/11/30 08:58:31;;;;;;;38.88;18.35;;;;;;;;;;5050300;28;20109;-59
2022/11/30 09:01:15;;;;;;;45.17;19.55;;;;;;;;;;5068185;28;20187;-59
2022/11/30 09:03:41;;;;;;;40.03;18.58;;;;;;;;;;5073732;28;20559;-61
2022/11/30 09:06:17;;;;;;;43.85;18.33;;;;;;;;;;5069667;28;20036;-59
2022/11/30 09:08:45;;;;;;;38.80;18.50;;;;;;;;;;5073472;28;20101;-63
2022/11/30 09:11:23;;;;;;;38.60;18.02;;;;;;;;;;5072413;28;20436;-63
2022/11/30 09:13:49;;;;;;;40.17;18.20;;;;;;;;;;5073055;28;20044;-62
2022/11/30 09:16:17;;;;;;;38.88;18.58;;;;;;;;;;5071271;28;20036;-61
2022/11/30 09:18:44;;;;;;;40.75;18.17;;;;;;;;;;5070647;28;20033;-61
2022/11/30 09:21:12;;;;;;;36.80;17.55;;;;;;;;;;5065418;28;20218;-60
2022/11/30 09:23:38;;;;;;;39.42;19.13;;;;;;;;;;5073363;28;20025;-60
2022/11/30 09:26:07;;;;;;;41.28;18.95;;;;;;;;;;5070300;28;20051;-59
2022/11/30 09:28:34;;;;;;;42.25;19.05;;;;;;;;;;5073350;28;20028;-60
2022/11/30 09:31:01;;;;;;;39.42;18.38;;;;;;;;;;5073466;28;20117;-63
2022/11/30 09:33:27;;;;;;;39.88;17.77;;;;;;;;;;5073517;28;20075;-62
2022/11/30 09:35:55;;;;;;;37.92;19.27;;;;;;;;;;5073490;28;20034;-65
2022/11/30 09:38:20;;;;;;;38.20;18.50;;;;;;;;;;5074363;28;20033;-61
2022/11/30 09:40:54;;;;;;;40.85;19.40;;;;;;;;;;5050822;28;20047;-60
2022/11/30 09:43:44;;;;;;;41.28;18.50;;;;;;;;;;5054222;28;20029;-60
2022/11/30 09:46:10;;;;;;;37.15;18.42;;;;;;;;;;5071123;28;20044;-60
2022/11/30 09:48:53;;;;;;;41.50;17.90;;;;;;;;;;5073168;28;20033;-59
2022/11/30 09:51:38;;;;;;;34.47;17.02;;;;;;;;;;5055191;28;20033;-61
2022/11/30 09:54:09;;;;;;;42.30;17.33;;;;;;;;;;5069314;28;20040;-59
2022/11/30 09:56:38;;;;;;;36.33;16.70;;;;;;;;;;5054694;28;20032;-60
2022/11/30 09:59:18;;;;;;;36.60;17.70;;;;;;;;;;5072443;28;20040;-61
2022/11/30 10:01:46;;;;;;;37.03;17.42;;;;;;;;;;5073136;28;20085;-59
2022/11/30 10:04:24;;;;;;;41.25;17.85;;;;;;;;;;5071780;28;20032;-61
2022/11/30 10:07:06;;;;;;;40.58;17.40;;;;;;;;;;5072885;28;20036;-62
2022/11/30 10:09:43;;;;;;;39.85;17.70;;;;;;;;;;5071826;28;20045;-61
2022/11/30 10:12:18;;;;;;;34.75;16.73;;;;;;;;;;5071082;28;20029;-61
2022/11/30 10:15:21;;;;;;;35.35;17.65;;;;;;;;;;5072760;28;20036;-61
2022/11/30 10:17:49;;;;;;;34.50;16.13;;;;;;;;;;5069423;28;20585;-61
2022/11/30 10:20:17;;;;;;;32.92;16.73;;;;;;;;;;5073393;28;20029;-60
2022/11/30 10:22:45;;;;;;;35.90;17.77;;;;;;;;;;5071758;28;20131;-61
2022/11/30 10:25:36;;;;;;;36.42;17.55;;;;;;;;;;5071745;28;20029;-65
2022/11/30 10:28:32;;;;;;;34.30;16.83;;;;;;;;;;5072053;28;20047;-60
2022/11/30 10:31:00;;;;;;;37.95;18.20;;;;;;;;;;5072387;28;20051;-61
2022/11/30 10:33:31;;;;;;;36.08;16.92;;;;;;;;;;5045317;28;20042;-61
2022/11/30 10:36:03;;;;;;;33.47;16.33;;;;;;;;;;5059180;28;20033;-60
2022/11/30 10:38:39;;;;;;;34.42;17.02;;;;;;;;;;5063680;28;20090;-61
2022/11/30 10:41:18;;;;;;;32.05;16.50;;;;;;;;;;5070040;28;20091;-60
2022/11/30 10:43:47;;;;;;;33.72;16.98;;;;;;;;;;5072104;28;20028;-60
2022/11/30 10:46:34;;;;;;;31.05;16.65;;;;;;;;;;5071433;28;20036;-61
2022/11/30 10:49:07;;;;;;;32.53;16.38;;;;;;;;;;5072429;28;20028;-61
2022/11/30 10:51:36;;;;;;;33.63;16.15;;;;;;;;;;5070104;28;20037;-61
2022/11/30 10:54:14;;;;;;;35.85;15.98;;;;;;;;;;5072463;28;20070;-60
2022/11/30 10:56:39;;;;;;;32.95;16.77;;;;;;;;;;5066977;28;20144;-60
2022/11/30 10:59:26;;;;;;;33.38;15.82;;;;;;;;;;5072637;28;20115;-61
2022/11/30 11:01:52;;;;;;;27.20;14.70;;;;;;;;;;5069902;28;20074;-60
2022/11/30 11:04:23;;;;;;;29.67;15.25;;;;;;;;;;5072452;28;20411;-61
2022/11/30 11:06:58;;;;;;;29.92;15.43;;;;;;;;;;5051476;28;20027;-59
2022/11/30 11:09:37;;;;;;;29.08;14.85;;;;;;;;;;5066528;28;20024;-60
2022/11/30 11:12:18;;;;;;;30.40;16.25;;;;;;;;;;5071283;28;20032;-60
2022/11/30 11:14:43;;;;;;;;;;;;;;;;;;5070985;28;20036;-61
2022/11/30 11:17:18;;;;;;;27.90;14.60;;;;;;;;;;5054023;28;19982;-59
2022/11/30 11:19:46;;;;;;;28.30;14.68;;;;;;;;;;5069963;28;20032;-58
2022/11/30 11:22:28;;;;;;;27.77;14.43;;;;;;;;;;5072097;28;20028;-60
2022/11/30 11:25:32;;;;;;;27.15;15.10;;;;;;;;;;5070999;28;20090;-62
2022/11/30 11:28:12;;;;;;;29.20;15.05;;;;;;;;;;5022924;28;20482;-61
2022/11/30 11:30:38;;;;;;;28.20;15.10;;;;;;;;;;5052291;28;20064;-61
2022/11/30 11:33:09;;;;;;;25.48;13.65;;;;;;;;;;5070882;28;20064;-61
2022/11/30 11:35:53;;;;;;;;;;;;;;;;;;5071367;28;20117;-63
2022/11/30 11:38:27;;;;;;;26.92;14.30;;;;;;;;;;5071182;28;19927;-63
2022/11/30 11:41:02;;;;;;;29.50;14.65;;;;;;;;;;5069931;28;20044;-65
2022/11/30 11:43:31;;;;;;;29.38;14.23;;;;;;;;;;5070720;28;20126;-62
2022/11/30 11:46:11;;;;;;;26.23;13.57;;;;;;;;;;5071312;28;20029;-59
2022/11/30 11:48:44;;;;;;;28.00;13.95;;;;;;;;;;5069975;28;20032;-61
2022/11/30 11:51:12;;;;;;;27.92;13.27;;;;;;;;;;5053636;28;20166;-58
2022/11/30 11:53:48;;;;;;;29.67;13.90;;;;;;;;;;5069914;28;20036;-60
2022/11/30 11:56:31;;;;;;;31.33;15.20;;;;;;;;;;5071162;28;20045;-60
2022/11/30 11:59:16;;;;;;;31.92;14.98;;;;;;;;;;5070533;28;20035;-60
2022/11/30 12:02:00;;;;;;;31.05;14.90;;;;;;;;;;5051246;28;20042;-61
2022/11/30 12:04:38;;;;;;;29.23;14.40;;;;;;;;;;5071144;28;20107;-61
2022/11/30 12:07:21;;;;;;;28.17;14.48;;;;;;;;;;5067114;28;20033;-60
2022/11/30 12:10:16;;;;;;;28.92;14.40;;;;;;;;;;5069601;28;20032;-60
2022/11/30 12:12:41;;;;;;;29.20;14.57;;;;;;;;;;5069597;28;20469;-62
2022/11/30 12:15:13;;;;;;;29.05;14.25;;;;;;;;;;5068198;28;20040;-60
2022/11/30 12:18:01;;;;;;;27.00;14.10;;;;;;;;;;5069936;28;20025;-62
2022/11/30 12:20:36;;;;;;;30.08;14.52;;;;;;;;;;5069507;28;20038;-61
2022/11/30 12:23:11;;;;;;;30.42;14.77;;;;;;;;;;5069354;28;20115;-59
2022/11/30 12:25:45;;;;;;;31.02;14.48;;;;;;;;;;5070079;28;20028;-60
2022/11/30 12:28:46;;;;;;;31.65;14.10;;;;;;;;;;5069046;28;20035;-60
2022/11/30 12:31:13;;;;;;;27.77;13.73;;;;;;;;;;5031547;28;20485;-60
2022/11/30 12:34:07;;;;;;;28.70;14.52;;;;;;;;;;5069559;28;20036;-60
2022/11/30 12:36:47;;;;;;;27.90;14.20;;;;;;;;;;5070443;28;20029;-61
2022/11/30 12:39:25;;;;;;;30.08;14.05;;;;;;;;;;5069749;28;20117;-59
2022/11/30 12:41:53;;;;;;;30.45;14.43;;;;;;;;;;5068950;28;20040;-61
2022/11/30 12:44:50;;;;;;;32.30;14.25;;;;;;;;;;5068457;28;20036;-60
2022/11/30 12:47:43;;;;;;;29.63;13.68;;;;;;;;;;5069384;28;20032;-60
2022/11/30 12:50:30;;;;;;;35.03;14.93;;;;;;;;;;5050656;28;20033;-60
2022/11/30 12:52:58;;;;;;;32.17;14.77;;;;;;;;;;5055914;28;20086;-60
2022/11/30 12:55:44;;;;;;;33.83;15.95;;;;;;;;;;5070401;28;20056;-61
2022/11/30 12:58:22;;;;;;;32.28;14.77;;;;;;;;;;5068078;28;20048;-60
2022/11/30 13:01:11;;;;;;;30.42;14.10;;;;;;;;;;5069463;28;20119;-61
2022/11/30 13:03:52;;;;;;;31.52;14.60;;;;;;;;;;5068596;28;20102;-60
2022/11/30 13:06:23;;;;;;;34.22;15.57;;;;;;;;;;5071041;28;20064;-63
2022/11/30 13:08:57;;;;;;;;;;;;;;;;;;5052880;28;20097;-58
2022/11/30 13:11:39;;;;;;;36.85;14.52;;;;;;;;;;5067267;28;19908;-61
2022/11/30 13:14:15;;;;;;;34.35;15.80;;;;;;;;;;5068906;28;20036;-61
2022/11/30 13:16:42;;;;;;;35.55;15.50;;;;;;;;;;5069386;28;20036;-62
2022/11/30 13:19:43;;;;;;;38.63;16.38;;;;;;;;;;5069305;28;20036;-62
2022/11/30 13:22:44;;;;;;;36.85;15.52;;;;;;;;;;5070278;28;20024;-63
2022/11/30 13:25:28;;;;;;;33.78;14.70;;;;;;;;;;5033590;28;20033;-60
2022/11/30 13:28:09;;;;;;;32.47;14.45;;;;;;;;;;5069818;28;20036;-60
2022/11/30 13:30:42;;;;;;;;;;;;;;;;;;5069532;28;20427;-61
2022/11/30 13:33:37;;;;;;;34.28;15.68;;;;;;;;;;5072638;28;19919;-61
2022/11/30 13:36:04;;;;;;;38.88;14.48;;;;;;;;;;5073660;28;20036;-60
2022/11/30 13:38:30;;;;;;;33.80;15.10;;;;;;;;;;5074045;28;20025;-60
2022/11/30 13:40:57;;;;;;;38.42;16.25;;;;;;;;;;5053924;28;20030;-60
2022/11/30 13:43:25;;;;;;;38.38;15.52;;;;;;;;;;5073832;28;20051;-60
2022/11/30 13:46:03;;;;;;;37.67;16.23;;;;;;;;;;5072101;28;20051;-61
2022/11/30 13:48:37;;;;;;;35.83;15.40;;;;;;;;;;5074002;28;20032;-62
2022/11/30 13:51:03;;;;;;;36.88;15.68;;;;;;;;;;5072997;28;20040;-61
2022/11/30 13:53:35;;;;;;;35.47;15.77;;;;;;;;;;5073625;28;20081;-62
2022/11/30 13:56:39;;;;;;;35.88;16.15;;;;;;;;;;5071923;28;20036;-61
2022/11/30 13:59:52;;;;;;;32.83;15.70;;;;;;;;;;5039348;28;20465;-61
2022/11/30 14:02:33;;;;;;;35.15;15.13;;;;;;;;;;5009592;28;20060;-61
2022/11/30 14:05:16;;;;;;;34.28;14.85;;;;;;;;;;5069016;28;20081;-62
2022/11/30 14:08:05;;;;;;;36.50;14.98;;;;;;;;;;5054665;28;20121;-62
2022/11/30 14:10:37;;;;;;;38.35;15.18;;;;;;;;;;5068730;28;20036;-61
2022/11/30 14:13:17;;;;;;;36.50;16.02;;;;;;;;;;5073402;28;20028;-61
2022/11/30 14:15:42;;;;;;;32.65;14.32;;;;;;;;;;5071227;28;20036;-61
2022/11/30 14:18:08;;;;;;;32.15;14.40;;;;;;;;;;5054749;28;20501;-63
2022/11/30 14:20:37;;;;;;;35.75;14.82;;;;;;;;;;5072899;28;20055;-65
2022/11/30 14:23:11;;;;;;;32.00;14.30;;;;;;;;;;5073323;28;20024;-65
2022/11/30 14:25:41;;;;;;;31.15;15.05;;;;;;;;;;5070554;28;20039;-61
2022/11/30 14:28:10;;;;;;;29.40;13.63;;;;;;;;;;5055134;28;20097;-61
2022/11/30 14:30:38;;;;;;;30.38;13.88;;;;;;;;;;5069778;28;20036;-61
2022/11/30 14:33:14;;;;;;;27.85;13.40;;;;;;;;;;5067950;28;20043;-61
2022/11/30 14:35:42;;;;;;;29.27;13.88;;;;;;;;;;5071396;28;20029;-60
2022/11/30 14:38:30;;;;;;;29.38;13.77;;;;;;;;;;5071700;28;20037;-62
2022/11/30 14:40:56;;;;;;;29.45;13.57;;;;;;;;;;5070906;28;20150;-60